Current Conditions
Overcast
Conditions



Pressure
1015.92 (hPa) - 30 (inHG)
Visibility

8.0 (km) - 5.0 (miles)
Temperature
8  °C
Temperature
5  °C
Dewpoint
82  %
 Humidity
Wind Speed
5  km/h
3  kts
3  mph
1.3  m/s
Wind Direction
N
45°
E
90°
135°
S
180°
225°
W
270°
315°
 50°

North East
Airport Data
LIPI
Rivolto Air Base
Metar :LIPI 220455Z 05003KT 8000 OVC007 08/05 Q1016
Thu 22nd February 05:55 am
Raw Metar Info
Raw METAR is the most common format in the world for the transmission of observational weather data. It is highly standardized through the International Civil Aviation Organization (ICAO), which allows it to be understood throughout most of the world.
API Info
Data Provided by
https://www.checkwx.com/weather/LIPI

Aviation Weather providing METAR, TAF, AIRMET, SIGMET and OUTLOOK Weather Reports
© Info
CSS/SVG/PHP scripts were developed by weather34 for use in the weather34 template © 2015-2024

Guide Info provided by Metar-Wikipedia